Time,TemperatureF,DewpointF,PressureIn,WindDirection,WindDirectionDegrees,WindSpeedMPH,WindSpeedGustMPH,Humidity,HourlyPrecipIn,Conditions,Clouds,dailyrainin,SoftwareType,DateUTC
2013-04-12 00:03:00,51.6,46.0,29.89,East,81,0.0,0.0,80,0.00,,,0.00,weatherlink.com 1.10,2013-04-12 05:03:00,
2013-04-12 00:18:00,52.7,46.0,29.89,ENE,77,2.0,2.0,77,0.00,,,0.00,weatherlink.com 1.10,2013-04-12 05:18:00,
2013-04-12 00:33:00,53.4,46.0,29.90,ENE,70,2.0,3.0,75,0.00,,,0.00,weatherlink.com 1.10,2013-04-12 05:33:00,
2013-04-12 00:49:00,52.7,46.0,29.90,East,90,1.0,2.0,77,0.00,,,0.00,weatherlink.com 1.10,2013-04-12 05:49:00,
2013-04-12 01:04:00,52.3,46.0,29.91,ESE,105,0.0,3.0,78,0.00,,,0.00,weatherlink.com 1.10,2013-04-12 06:04:00,
2013-04-12 01:19:00,51.6,46.0,29.91,East,96,0.0,1.0,80,0.00,,,0.00,weatherlink.com 1.10,2013-04-12 06:19:00,
2013-04-12 01:34:00,50.6,45.0,29.91,NE,49,0.0,2.0,82,0.00,,,0.00,weatherlink.com 1.10,2013-04-12 06:34:00,
2013-04-12 01:49:00,50.5,45.0,29.91,NE,50,0.0,1.0,82,0.00,,,0.00,weatherlink.com 1.10,2013-04-12 06:49:00,
2013-04-12 02:04:00,49.9,45.0,29.91,SE,140,0.0,2.0,84,0.00,,,0.00,weatherlink.com 1.10,2013-04-12 07:04:00,
2013-04-12 02:19:00,49.1,45.0,29.91,SE,140,0.0,0.0,85,0.00,,,0.00,weatherlink.com 1.10,2013-04-12 07:19:00,
2013-04-12 02:34:00,48.9,45.0,29.90,SE,139,0.0,0.0,85,0.00,,,0.00,weatherlink.com 1.10,2013-04-12 07:34:00,
2013-04-12 02:49:00,48.3,45.0,29.91,NNE,32,2.0,2.0,87,0.00,,,0.00,weatherlink.com 1.10,2013-04-12 07:49:00,
2013-04-12 03:04:00,48.5,45.0,29.90,NNE,30,0.0,0.0,87,0.00,,,0.00,weatherlink.com 1.10,2013-04-12 08:04:00,
2013-04-12 03:19:00,47.7,44.0,29.90,NNE,30,0.0,0.0,87,0.00,,,0.00,weatherlink.com 1.10,2013-04-12 08:19:00,
2013-04-12 03:34:00,47.9,45.0,29.90,ESE,115,0.0,0.0,88,0.00,,,0.00,weatherlink.com 1.10,2013-04-12 08:34:00,
2013-04-12 03:49:00,47.5,44.0,29.90,ESE,115,0.0,0.0,88,0.00,,,0.00,weatherlink.com 1.10,2013-04-12 08:49:00,
2013-04-12 04:04:00,46.9,44.0,29.89,ESE,115,0.0,0.0,89,0.00,,,0.00,weatherlink.com 1.10,2013-04-12 09:04:00,
2013-04-12 04:19:00,46.6,44.0,29.90,ESE,115,0.0,0.0,90,0.00,,,0.00,weatherlink.com 1.10,2013-04-12 09:19:00,
2013-04-12 04:34:00,46.1,43.0,29.89,ESE,115,0.0,0.0,90,0.00,,,0.00,weatherlink.com 1.10,2013-04-12 09:34:00,
2013-04-12 04:49:00,46.0,44.0,29.90,ESE,116,0.0,0.0,92,0.00,,,0.00,weatherlink.com 1.10,2013-04-12 09:49:00,
2013-04-12 05:04:00,46.1,44.0,29.90,ESE,115,0.0,0.0,91,0.00,,,0.00,weatherlink.com 1.10,2013-04-12 10:04:00,
2013-04-12 05:19:00,45.9,44.0,29.91,ESE,115,0.0,0.0,92,0.00,,,0.00,weatherlink.com 1.10,2013-04-12 10:19:00,
2013-04-12 05:34:00,46.0,44.0,29.91,ESE,115,0.0,0.0,92,0.00,,,0.00,weatherlink.com 1.10,2013-04-12 10:34:00,
2013-04-12 05:49:00,45.7,43.0,29.91,ESE,115,0.0,0.0,91,0.00,,,0.00,weatherlink.com 1.10,2013-04-12 10:49:00,
2013-04-12 06:04:00,45.3,43.0,29.92,ESE,115,0.0,0.0,92,0.00,,,0.00,weatherlink.com 1.10,2013-04-12 11:04:00,
2013-04-12 06:19:00,45.4,43.0,29.92,ESE,115,0.0,0.0,92,0.00,,,0.00,weatherlink.com 1.10,2013-04-12 11:19:00,
2013-04-12 06:34:00,45.5,44.0,29.93,ESE,115,0.0,0.0,93,0.00,,,0.00,weatherlink.com 1.10,2013-04-12 11:34:00,
2013-04-12 06:49:00,45.1,43.0,29.93,ESE,115,0.0,0.0,93,0.00,,,0.00,weatherlink.com 1.10,2013-04-12 11:49:00,
2013-04-12 07:04:00,44.8,43.0,29.94,ESE,115,0.0,0.0,93,0.00,,,0.00,weatherlink.com 1.10,2013-04-12 12:04:00,
2013-04-12 07:19:00,44.8,43.0,29.94,ESE,116,0.0,0.0,93,0.00,,,0.00,weatherlink.com 1.10,2013-04-12 12:19:00,
2013-04-12 07:34:00,46.1,45.0,29.96,ESE,115,0.0,0.0,94,0.00,,,0.00,weatherlink.com 1.10,2013-04-12 12:34:00,
2013-04-12 07:49:00,48.8,47.0,29.96,ESE,116,0.0,0.0,93,0.00,,,0.00,weatherlink.com 1.10,2013-04-12 12:49:00,
2013-04-12 08:04:00,50.5,47.0,29.97,East,94,0.0,1.0,88,0.00,,,0.00,weatherlink.com 1.10,2013-04-12 13:04:00,
2013-04-12 08:19:00,52.4,47.0,29.98,East,86,0.0,2.0,83,0.00,,,0.00,weatherlink.com 1.10,2013-04-12 13:19:00,
2013-04-12 08:34:00,54.1,48.0,29.98,East,82,2.0,2.0,80,0.00,,,0.00,weatherlink.com 1.10,2013-04-12 13:34:00,
2013-04-12 08:50:00,55.3,49.0,29.99,ENE,58,3.0,3.0,78,0.00,,,0.00,weatherlink.com 1.10,2013-04-12 13:50:00,
2013-04-12 09:05:00,57.0,50.0,29.99,ENE,77,1.0,3.0,77,0.00,,,0.00,weatherlink.com 1.10,2013-04-12 14:05:00,
2013-04-12 09:20:00,59.6,52.0,29.99,East,82,0.0,2.0,76,0.00,,,0.00,weatherlink.com 1.10,2013-04-12 14:20:00,
2013-04-12 09:35:00,61.7,54.0,29.99,ESE,104,2.0,2.0,75,0.00,,,0.00,weatherlink.com 1.10,2013-04-12 14:35:00,
2013-04-12 09:50:00,62.8,54.0,30.00,ESE,113,1.0,4.0,73,0.00,,,0.00,weatherlink.com 1.10,2013-04-12 14:50:00,
2013-04-12 10:05:00,64.6,53.0,30.00,SE,135,3.0,8.0,66,0.00,,,0.00,weatherlink.com 1.10,2013-04-12 15:05:00,
2013-04-12 10:20:00,64.8,52.0,30.00,East,94,7.0,8.0,63,0.00,,,0.00,weatherlink.com 1.10,2013-04-12 15:20:00,
2013-04-12 10:35:00,65.7,52.0,29.99,East,98,3.0,7.0,62,0.00,,,0.00,weatherlink.com 1.10,2013-04-12 15:35:00,
2013-04-12 10:50:00,66.8,52.0,29.99,ESE,114,4.0,9.0,59,0.00,,,0.00,weatherlink.com 1.10,2013-04-12 15:50:00,
2013-04-12 11:05:00,67.3,52.0,29.99,SE,124,3.0,8.0,58,0.00,,,0.00,weatherlink.com 1.10,2013-04-12 16:05:00,
2013-04-12 11:20:00,68.0,51.0,29.99,East,81,10.0,10.0,55,0.00,,,0.00,weatherlink.com 1.10,2013-04-12 16:20:00,
2013-04-12 11:35:00,69.1,53.0,29.99,SE,131,0.0,8.0,56,0.00,,,0.00,weatherlink.com 1.10,2013-04-12 16:35:00,
2013-04-12 11:50:00,69.6,52.0,29.98,ESE,110,3.0,9.0,54,0.00,,,0.00,weatherlink.com 1.10,2013-04-12 16:50:00,
2013-04-12 12:05:00,70.1,51.0,29.98,East,92,4.0,8.0,51,0.00,,,0.00,weatherlink.com 1.10,2013-04-12 17:05:00,
2013-04-12 12:20:00,71.4,52.0,29.97,SE,146,1.0,8.0,51,0.00,,,0.00,weatherlink.com 1.10,2013-04-12 17:20:00,
2013-04-12 12:35:00,72.5,50.0,29.96,SSE,150,3.0,8.0,46,0.00,,,0.00,weatherlink.com 1.10,2013-04-12 17:35:00,
2013-04-12 12:50:00,73.3,52.0,29.96,East,82,5.0,9.0,48,0.00,,,0.00,weatherlink.com 1.10,2013-04-12 17:50:00,
2013-04-12 13:05:00,74.3,50.0,29.95,East,90,5.0,9.0,43,0.00,,,0.00,weatherlink.com 1.10,2013-04-12 18:05:00,
2013-04-12 13:21:00,75.1,48.0,29.95,SSE,153,2.0,8.0,39,0.00,,,0.00,weatherlink.com 1.10,2013-04-12 18:21:00,
2013-04-12 14:36:00,78.2,48.0,29.91,SSE,158,4.0,11.0,35,0.00,,,0.00,weatherlink.com 1.10,2013-04-12 19:36:00,
2013-04-12 14:51:00,79.6,49.0,29.90,East,82,2.0,11.0,34,0.00,,,0.00,weatherlink.com 1.10,2013-04-12 19:51:00,
2013-04-12 15:21:00,79.7,46.0,29.88,SE,129,5.0,9.0,30,0.00,,,0.00,weatherlink.com 1.10,2013-04-12 20:21:00,
2013-04-12 15:36:00,80.4,43.0,29.87,SE,141,3.0,12.0,27,0.00,,,0.00,weatherlink.com 1.10,2013-04-12 20:36:00,
2013-04-12 15:51:00,80.4,44.0,29.86,ENE,78,7.0,11.0,28,0.00,,,0.00,weatherlink.com 1.10,2013-04-12 20:51:00,
2013-04-12 16:06:00,80.5,44.0,29.86,East,89,3.0,9.0,28,0.00,,,0.00,weatherlink.com 1.10,2013-04-12 21:06:00,
2013-04-12 16:21:00,80.7,43.0,29.85,East,94,7.0,12.0,26,0.00,,,0.00,weatherlink.com 1.10,2013-04-12 21:21:00,
2013-04-12 16:36:00,81.6,44.0,29.84,ESE,108,7.0,12.0,27,0.00,,,0.00,weatherlink.com 1.10,2013-04-12 21:36:00,
2013-04-12 16:51:00,81.6,43.0,29.84,East,91,7.0,9.0,25,0.00,,,0.00,weatherlink.com 1.10,2013-04-12 21:51:00,
2013-04-12 17:06:00,82.0,44.0,29.83,SE,146,8.0,11.0,26,0.00,,,0.00,weatherlink.com 1.10,2013-04-12 22:06:00,
2013-04-12 17:21:00,81.8,42.0,29.83,SE,134,6.0,11.0,24,0.00,,,0.00,weatherlink.com 1.10,2013-04-12 22:21:00,
2013-04-12 17:36:00,81.9,42.0,29.83,East,100,4.0,9.0,24,0.00,,,0.00,weatherlink.com 1.10,2013-04-12 22:36:00,
2013-04-12 17:51:00,82.6,42.0,29.83,SSE,148,4.0,8.0,24,0.00,,,0.00,weatherlink.com 1.10,2013-04-12 22:51:00,
2013-04-12 18:06:00,82.2,41.0,29.82,East,79,8.0,10.0,23,0.00,,,0.00,weatherlink.com 1.10,2013-04-12 23:06:00,
2013-04-12 18:21:00,82.0,41.0,29.82,SE,138,5.0,11.0,23,0.00,,,0.00,weatherlink.com 1.10,2013-04-12 23:21:00,
2013-04-12 18:36:00,81.9,41.0,29.82,SE,129,3.0,8.0,23,0.00,,,0.00,weatherlink.com 1.10,2013-04-12 23:36:00,
2013-04-12 18:51:00,81.5,41.0,29.82,ESE,120,2.0,9.0,24,0.00,,,0.00,weatherlink.com 1.10,2013-04-12 23:51:00,
2013-04-12 19:06:00,80.4,41.0,29.82,SE,139,3.0,8.0,25,0.00,,,0.00,weatherlink.com 1.10,2013-04-13 00:06:00,
2013-04-12 19:21:00,79.7,42.0,29.82,SE,134,1.0,7.0,26,0.00,,,0.00,weatherlink.com 1.10,2013-04-13 00:21:00,
2013-04-12 19:36:00,78.9,43.0,29.82,ESE,107,1.0,4.0,28,0.00,,,0.00,weatherlink.com 1.10,2013-04-13 00:36:00,
2013-04-12 19:51:00,77.0,44.0,29.83,ESE,122,2.0,3.0,31,0.00,,,0.00,weatherlink.com 1.10,2013-04-13 00:51:00,
2013-04-12 20:06:00,74.9,45.0,29.83,SE,128,2.0,4.0,34,0.00,,,0.00,weatherlink.com 1.10,2013-04-13 01:06:00,
2013-04-12 20:21:00,73.5,44.0,29.84,SE,127,3.0,5.0,35,0.00,,,0.00,weatherlink.com 1.10,2013-04-13 01:21:00,
2013-04-12 20:36:00,73.2,45.0,29.84,ESE,120,7.0,10.0,36,0.00,,,0.00,weatherlink.com 1.10,2013-04-13 01:36:00,
2013-04-12 20:51:00,73.1,47.0,29.84,South,179,6.0,15.0,39,0.00,,,0.00,weatherlink.com 1.10,2013-04-13 01:51:00,
2013-04-12 21:06:00,72.3,48.0,29.85,SE,142,5.0,15.0,42,0.00,,,0.00,weatherlink.com 1.10,2013-04-13 02:06:00,
2013-04-12 21:21:00,71.3,48.0,29.86,SE,135,9.0,12.0,43,0.00,,,0.00,weatherlink.com 1.10,2013-04-13 02:21:00,
2013-04-12 21:37:00,70.4,47.0,29.87,SE,139,4.0,12.0,43,0.00,,,0.00,weatherlink.com 1.10,2013-04-13 02:37:00,
2013-04-12 21:51:00,69.6,45.0,29.88,South,176,4.0,13.0,42,0.00,,,0.00,weatherlink.com 1.10,2013-04-13 02:51:00,
2013-04-12 22:21:00,68.1,40.0,29.91,SSE,148,8.0,13.0,36,0.00,,,0.00,weatherlink.com 1.10,2013-04-13 03:21:00,
2013-04-12 22:37:00,67.4,40.0,29.91,SE,140,8.0,12.0,37,0.00,,,0.00,weatherlink.com 1.10,2013-04-13 03:37:00,
2013-04-12 22:51:00,66.5,41.0,29.92,ESE,114,5.0,15.0,40,0.00,,,0.00,weatherlink.com 1.10,2013-04-13 03:51:00,
2013-04-12 23:06:00,65.7,43.0,29.92,SE,125,6.0,12.0,44,0.00,,,0.00,weatherlink.com 1.10,2013-04-13 04:06:00,
2013-04-12 23:21:00,64.6,44.0,29.93,ESE,115,5.0,10.0,48,0.00,,,0.00,weatherlink.com 1.10,2013-04-13 04:21:00,
2013-04-12 23:36:00,63.8,45.0,29.94,SE,131,4.0,9.0,51,0.00,,,0.00,weatherlink.com 1.10,2013-04-13 04:36:00,
2013-04-12 23:51:00,63.0,46.0,29.94,SE,128,2.0,9.0,55,0.00,,,0.00,weatherlink.com 1.10,2013-04-13 04:51:00,